Terminal Aerodrome Forecast
Issued by NWS

Home | Current Version | Previous Version | Text Only | Print | Product List | Glossary On
Versions: 1 2 3 4 5 6 7 8 9 10 11 12 13 14 15 16 17 18 19 20 21 22
304
FTUS43 KEAX 151721
TAFSTJ
TAF
KSTJ 151721Z 1518/1618 17009KT P6SM BKN035 BKN250
     FM160100 VRB05KT P6SM SCT200
     FM160800 VRB05KT P6SM VCTS SCT070CB BKN200
     FM161000 VRB05KT P6SM -TSRA OVC045CB
     FM161300 VRB04KT P6SM OVC090=

USA.gov is the U.S. government's official web portal to all federal, state and local government web resources and services.